Time;durP1;ratioP1;P1;durP2;ratioP2;P2;SDS_P1;SDS_P2;PMS_P1;PMS_P2;Temp;Humidity;BMP_temperature;BMP_pressure;BME280_temperature;BME280_humidity;BME280_pressure;Samples;Min_cycle;Max_cycle;Signal;HPM_P1;HPM_P2
2022/04/03 00:00:10;;;;;;;6.82;3.15;;;0.90;99.90;;;;;;5092360;28;20093;-79
2022/04/03 00:02:35;;;;;;;8.38;3.85;;;0.90;99.90;;;;;;5092970;28;20075;-78
2022/04/03 00:05:01;;;;;;;4.72;2.63;;;1.00;99.90;;;;;;5092559;28;20032;-78
2022/04/03 00:07:26;;;;;;;5.82;3.35;;;1.00;99.90;;;;;;5092590;28;20043;-78
2022/04/03 00:09:52;;;;;;;3.83;2.78;;;0.90;99.90;;;;;;5094077;28;20028;-77
2022/04/03 00:12:18;;;;;;;7.80;3.05;;;0.90;99.90;;;;;;5093414;28;20030;-78
2022/04/03 00:14:43;;;;;;;4.72;2.78;;;0.90;99.90;;;;;;5093225;28;20106;-78
2022/04/03 00:17:09;;;;;;;4.45;2.80;;;0.90;99.90;;;;;;5099532;28;20110;-79
2022/04/03 00:19:34;;;;;;;4.75;3.13;;;0.90;99.90;;;;;;5100931;28;20116;-78
2022/04/03 00:22:01;;;;;;;6.13;3.22;;;1.00;99.90;;;;;;5102930;28;20031;-79
2022/04/03 00:24:27;;;;;;;5.85;2.63;;;1.00;99.90;;;;;;5095915;28;20424;-79
2022/04/03 00:26:52;;;;;;;6.93;2.60;;;1.00;99.90;;;;;;5092386;28;20089;-80
2022/04/03 00:29:19;;;;;;;4.85;2.85;;;1.00;99.90;;;;;;5093275;28;20027;-77
2022/04/03 00:31:45;;;;;;;4.28;2.60;;;1.00;99.90;;;;;;5092607;28;20035;-76
2022/04/03 00:34:10;;;;;;;3.45;2.42;;;0.90;99.90;;;;;;5092178;28;20028;-78
2022/04/03 00:36:36;;;;;;;4.00;2.40;;;0.80;99.90;;;;;;5092044;28;20020;-77
2022/04/03 00:39:02;;;;;;;4.00;2.85;;;0.80;99.90;;;;;;5092276;28;20487;-79
2022/04/03 00:41:28;;;;;;;4.95;2.92;;;0.80;99.90;;;;;;5095128;28;20039;-79
2022/04/03 00:43:54;;;;;;;5.63;3.53;;;0.70;99.90;;;;;;5094265;28;20028;-78
2022/04/03 00:46:24;;;;;;;7.80;3.30;;;0.80;99.90;;;;;;5113636;28;20032;-79
2022/04/03 00:48:50;;;;;;;8.00;3.38;;;0.80;99.90;;;;;;5113576;28;20486;-79
2022/04/03 00:51:17;;;;;;;6.20;3.00;;;0.80;99.90;;;;;;5117394;28;20038;-77
2022/04/03 00:53:43;;;;;;;5.47;3.30;;;0.80;99.90;;;;;;5112651;28;20032;-79
2022/04/03 00:56:09;;;;;;;6.07;2.97;;;0.80;99.90;;;;;;5114680;28;20028;-79
2022/04/03 00:58:39;;;;;;;5.90;3.05;;;0.80;99.90;;;;;;5113440;28;20016;-78
2022/04/03 01:01:05;;;;;;;4.88;2.97;;;0.80;99.90;;;;;;5113775;28;20023;-77
2022/04/03 01:03:31;;;;;;;4.95;3.60;;;0.80;99.90;;;;;;5113516;28;20142;-78
2022/04/03 01:05:57;;;;;;;5.40;3.10;;;0.70;99.90;;;;;;5112032;28;20019;-76
2022/04/03 01:08:25;;;;;;;7.05;3.30;;;0.70;99.90;;;;;;5113354;28;20024;-77
2022/04/03 01:10:51;;;;;;;5.55;3.33;;;0.70;99.90;;;;;;5117340;28;20055;-79
2022/04/03 01:13:17;;;;;;;6.60;3.05;;;0.60;99.90;;;;;;5118196;28;20047;-79
2022/04/03 01:15:53;;;;;;;6.50;3.47;;;0.60;99.90;;;;;;5117689;28;20031;-79
2022/04/03 01:18:19;;;;;;;3.95;2.80;;;0.60;99.90;;;;;;5116976;28;20023;-78
2022/04/03 01:20:45;;;;;;;8.07;2.88;;;0.70;99.90;;;;;;5119714;28;20035;-78
2022/04/03 01:23:10;;;;;;;4.10;3.00;;;0.60;99.90;;;;;;5121561;28;20027;-78
2022/04/03 01:25:36;;;;;;;6.68;3.30;;;0.60;99.90;;;;;;5120665;28;20054;-80
2022/04/03 01:28:02;;;;;;;7.15;2.88;;;0.60;99.90;;;;;;5120211;28;20019;-78
2022/04/03 01:30:28;;;;;;;7.90;3.25;;;0.60;99.90;;;;;;5122650;28;20501;-79
2022/04/03 01:32:53;;;;;;;5.05;3.05;;;0.60;99.90;;;;;;5124734;28;20024;-78
2022/04/03 01:35:19;;;;;;;5.82;3.60;;;0.70;99.90;;;;;;5121567;28;20059;-78
2022/04/03 01:37:45;;;;;;;5.10;3.30;;;0.70;99.90;;;;;;5120541;28;20031;-77
2022/04/03 01:40:12;;;;;;;4.55;2.83;;;0.60;99.90;;;;;;5119088;28;20116;-78
2022/04/03 01:42:38;;;;;;;5.38;2.95;;;0.60;99.90;;;;;;5122565;28;20081;-77
2022/04/03 01:45:07;;;;;;;6.70;3.60;;;0.60;99.90;;;;;;5106944;28;20050;-77
2022/04/03 01:47:34;;;;;;;7.78;3.38;;;0.60;99.90;;;;;;5098821;28;20082;-78
2022/04/03 01:50:00;;;;;;;8.75;3.75;;;0.60;99.90;;;;;;5097747;28;20107;-78
2022/04/03 01:52:25;;;;;;;7.32;3.50;;;0.50;99.90;;;;;;5099170;28;20059;-79
2022/04/03 01:54:51;;;;;;;7.13;3.22;;;0.60;99.90;;;;;;5101540;28;20371;-76
2022/04/03 01:57:17;;;;;;;8.02;3.35;;;0.50;99.90;;;;;;5098731;28;20312;-79
2022/04/03 01:59:42;;;;;;;6.63;3.58;;;0.50;99.90;;;;;;5100024;28;20070;-76
2022/04/03 02:02:08;;;;;;;7.35;3.70;;;0.60;99.90;;;;;;5101660;28;20035;-77
2022/04/03 02:04:33;;;;;;;11.50;4.20;;;0.60;99.90;;;;;;5101355;28;20024;-79
2022/04/03 02:06:59;;;;;;;8.05;3.50;;;0.70;99.90;;;;;;5100611;28;20039;-80
2022/04/03 02:09:25;;;;;;;7.95;3.60;;;0.70;99.90;;;;;;5100128;28;20031;-79
2022/04/03 02:11:51;;;;;;;8.60;3.83;;;0.60;99.90;;;;;;5100289;28;20344;-79
2022/04/03 02:14:16;;;;;;;9.32;3.63;;;0.60;99.90;;;;;;5100852;28;20020;-79
2022/04/03 02:16:42;;;;;;;7.10;3.30;;;0.50;99.90;;;;;;5101443;28;20084;-78
2022/04/03 02:19:07;;;;;;;4.43;3.17;;;0.50;99.90;;;;;;5099798;28;20360;-78
2022/04/03 02:21:33;;;;;;;6.90;3.80;;;0.50;99.90;;;;;;5097611;28;20100;-81
2022/04/03 02:23:58;;;;;;;7.57;3.63;;;0.50;99.90;;;;;;5099443;28;20028;-79
2022/04/03 02:26:24;;;;;;;6.55;3.40;;;0.50;99.90;;;;;;5098032;28;20117;-77
2022/04/03 02:28:50;;;;;;;10.75;3.72;;;0.50;99.90;;;;;;5099318;28;20028;-81
2022/04/03 02:31:15;;;;;;;6.82;3.85;;;0.50;99.90;;;;;;5099496;28;20026;-78
2022/04/03 02:33:41;;;;;;;8.75;4.28;;;0.50;99.90;;;;;;5098533;28;20472;-79
2022/04/03 02:36:07;;;;;;;7.18;4.32;;;0.50;99.90;;;;;;5104158;28;20027;-77
2022/04/03 02:38:33;;;;;;;9.77;4.15;;;0.50;99.90;;;;;;5102714;28;20020;-78
2022/04/03 02:40:59;;;;;;;6.68;3.42;;;0.40;99.90;;;;;;5097427;28;20031;-77
2022/04/03 02:43:25;;;;;;;4.93;3.13;;;0.30;99.90;;;;;;5103811;28;20114;-78
2022/04/03 02:45:52;;;;;;;5.95;4.00;;;0.30;99.90;;;;;;5116718;28;20055;-77
2022/04/03 02:48:17;;;;;;;7.18;3.50;;;0.20;99.90;;;;;;5116700;28;20370;-78
2022/04/03 02:50:43;;;;;;;8.07;3.70;;;0.20;99.90;;;;;;5116737;28;20115;-77
2022/04/03 02:53:09;;;;;;;6.30;3.67;;;0.20;99.90;;;;;;5116190;28;20100;-77
2022/04/03 02:55:35;;;;;;;6.65;3.88;;;0.10;99.90;;;;;;5112830;28;20115;-78
2022/04/03 02:58:01;;;;;;;7.75;4.13;;;0.10;99.90;;;;;;5114859;28;20258;-78
2022/04/03 03:00:26;;;;;;;9.07;3.45;;;0.10;99.90;;;;;;5114201;28;20129;-76
2022/04/03 03:02:52;;;;;;;8.80;3.83;;;0.10;99.90;;;;;;5115116;28;20032;-79
2022/04/03 03:05:18;;;;;;;6.20;3.80;;;0.10;99.90;;;;;;5114405;28;20108;-78
2022/04/03 03:07:46;;;;;;;6.97;3.97;;;0.10;99.90;;;;;;5114651;28;20031;-76
2022/04/03 03:10:17;;;;;;;7.72;4.10;;;0.10;99.90;;;;;;5112699;28;20064;-78
2022/04/03 03:12:44;;;;;;;8.93;4.28;;;0.00;99.90;;;;;;5114036;28;20031;-77
2022/04/03 03:15:11;;;;;;;9.50;4.10;;;0.00;99.90;;;;;;5113713;28;20482;-76
2022/04/03 03:17:36;;;;;;;6.70;3.58;;;0.00;99.90;;;;;;5113868;28;20026;-77
2022/04/03 03:20:02;;;;;;;7.78;4.55;;;0.00;99.90;;;;;;5113068;28;20031;-78
2022/04/03 03:22:28;;;;;;;9.45;4.00;;;0.00;99.90;;;;;;5115397;28;20443;-78
2022/04/03 03:24:53;;;;;;;6.35;4.00;;;0.00;99.90;;;;;;5114822;28;20019;-78
2022/04/03 03:27:19;;;;;;;8.63;3.75;;;0.00;99.90;;;;;;5113934;28;20024;-78
2022/04/03 03:29:44;;;;;;;5.38;4.30;;;-0.10;99.90;;;;;;5113031;28;20520;-76
2022/04/03 03:32:10;;;;;;;7.05;4.40;;;-0.10;99.90;;;;;;5114358;28;20027;-79
2022/04/03 03:34:36;;;;;;;7.30;3.75;;;-0.20;99.90;;;;;;5112734;28;20023;-77
2022/04/03 03:37:02;;;;;;;11.30;4.30;;;-0.20;99.90;;;;;;5113540;28;20055;-77
2022/04/03 03:39:28;;;;;;;7.13;4.63;;;-0.20;99.90;;;;;;5113051;28;20063;-77
2022/04/03 03:41:55;;;;;;;8.43;4.28;;;-0.20;99.90;;;;;;5114331;28;20028;-77
2022/04/03 03:44:21;;;;;;;7.35;4.00;;;-0.30;99.90;;;;;;5109140;28;20016;-77
2022/04/03 03:46:46;;;;;;;8.18;4.45;;;-0.30;99.90;;;;;;5094568;28;20040;-80
2022/04/03 03:49:14;;;;;;;7.70;4.07;;;-0.40;99.90;;;;;;5093260;28;20506;-79
2022/04/03 03:51:40;;;;;;;9.82;4.80;;;-0.30;99.90;;;;;;5092180;28;20077;-77
2022/04/03 03:54:06;;;;;;;7.05;4.22;;;-0.30;99.90;;;;;;5097724;28;20031;-78
2022/04/03 03:56:32;;;;;;;8.23;5.15;;;-0.30;99.90;;;;;;5113603;28;20023;-80
2022/04/03 03:58:58;;;;;;;11.93;6.28;;;-0.30;99.90;;;;;;5115675;28;20501;-80
2022/04/03 04:01:23;;;;;;;11.48;5.75;;;-0.30;99.90;;;;;;5124737;28;20031;-77
2022/04/03 04:03:49;;;;;;;11.82;5.80;;;-0.30;99.90;;;;;;5117489;28;20096;-79
2022/04/03 04:06:15;;;;;;;9.48;5.45;;;-0.30;99.90;;;;;;5110569;28;20019;-79
2022/04/03 04:08:42;;;;;;;8.70;5.07;;;-0.30;99.90;;;;;;5114856;28;20023;-77
2022/04/03 04:11:08;;;;;;;9.15;4.82;;;-0.30;99.90;;;;;;5115965;28;20054;-76
2022/04/03 04:13:34;;;;;;;8.90;4.72;;;-0.30;99.90;;;;;;5115563;28;20031;-80
2022/04/03 04:16:00;;;;;;;8.52;4.85;;;-0.40;99.90;;;;;;5116495;28;20031;-77
2022/04/03 04:18:25;;;;;;;6.22;3.83;;;-0.40;99.90;;;;;;5115998;28;20030;-78
2022/04/03 04:20:52;;;;;;;8.00;4.60;;;-0.40;99.90;;;;;;5119740;28;20016;-79
2022/04/03 04:23:19;;;;;;;12.25;4.50;;;-0.40;99.90;;;;;;5118840;28;20035;-80
2022/04/03 04:25:47;;;;;;;7.90;4.93;;;-0.50;99.90;;;;;;5126218;28;20053;-78
2022/04/03 04:28:13;;;;;;;6.40;4.18;;;-0.40;99.90;;;;;;5118824;28;20020;-78
2022/04/03 04:30:39;;;;;;;7.60;4.40;;;-0.50;99.90;;;;;;5108325;28;20097;-80
2022/04/03 04:33:08;;;;;;;6.70;4.10;;;-0.50;99.90;;;;;;5105348;28;20020;-83
2022/04/03 04:35:34;;;;;;;8.60;4.93;;;-0.40;99.90;;;;;;5108524;28;20047;-79
2022/04/03 04:38:01;;;;;;;9.07;4.88;;;-0.40;99.90;;;;;;5108737;28;20035;-81
2022/04/03 04:40:27;;;;;;;7.78;4.70;;;-0.40;99.90;;;;;;5107147;28;20044;-80
2022/04/03 04:42:55;;;;;;;5.93;4.22;;;-0.50;99.90;;;;;;5093596;28;20035;-77
2022/04/03 04:45:21;;;;;;;6.28;4.32;;;-0.40;99.90;;;;;;5111147;28;20475;-76
2022/04/03 04:47:48;;;;;;;8.95;4.25;;;-0.50;99.90;;;;;;5112425;28;20055;-77
2022/04/03 04:50:15;;;;;;;7.97;4.38;;;-0.60;99.90;;;;;;5105090;28;20097;-80
2022/04/03 04:52:41;;;;;;;6.63;4.38;;;-0.60;99.90;;;;;;5092931;28;20028;-78
2022/04/03 04:55:09;;;;;;;7.88;3.92;;;-0.70;99.90;;;;;;5100874;28;20122;-77
2022/04/03 04:57:36;;;;;;;7.00;4.20;;;-0.80;99.90;;;;;;5111542;28;20027;-75
2022/04/03 05:00:06;;;;;;;9.80;4.57;;;-0.90;99.90;;;;;;5109688;28;20024;-79
2022/04/03 05:02:32;;;;;;;7.95;4.70;;;-1.00;99.90;;;;;;5111980;28;20531;-79
2022/04/03 05:04:58;;;;;;;7.63;4.40;;;-1.00;99.90;;;;;;5116382;28;20385;-78
2022/04/03 05:07:24;;;;;;;7.70;4.07;;;-1.10;99.90;;;;;;5074851;22;20037;-83
2022/04/03 05:09:51;;;;;;;7.50;4.35;;;-1.10;99.90;;;;;;5000058;28;20023;-83
2022/04/03 05:12:17;;;;;;;9.82;4.20;;;-1.10;99.90;;;;;;4991264;28;20232;-81
2022/04/03 05:14:43;;;;;;;7.00;5.03;;;-1.20;99.90;;;;;;4994840;28;20030;-82
2022/04/03 05:17:09;;;;;;;8.52;4.57;;;-1.20;99.90;;;;;;5011116;28;20113;-82
2022/04/03 05:19:38;;;;;;;7.53;4.13;;;-1.20;99.90;;;;;;5011639;28;20485;-81
2022/04/03 05:22:04;;;;;;;8.10;4.72;;;-1.30;99.90;;;;;;5010834;28;20233;-81
2022/04/03 05:24:30;;;;;;;8.82;4.90;;;-1.30;99.90;;;;;;5007600;28;20134;-83
2022/04/03 05:26:55;;;;;;;6.57;4.50;;;-1.20;99.90;;;;;;5007939;28;20025;-81
2022/04/03 05:29:21;;;;;;;7.22;4.25;;;-1.20;99.90;;;;;;5003536;28;20025;-81
2022/04/03 05:31:46;;;;;;;8.30;4.68;;;-1.20;99.90;;;;;;5010327;28;20449;-82
2022/04/03 05:34:13;;;;;;;8.43;4.07;;;-1.20;99.90;;;;;;5010832;28;20415;-82
2022/04/03 05:36:39;;;;;;;7.88;4.47;;;-1.20;99.90;;;;;;4999513;28;20014;-81
2022/04/03 05:39:06;;;;;;;6.75;4.47;;;-1.30;99.90;;;;;;5007020;28;20504;-83
2022/04/03 05:41:32;;;;;;;11.27;4.75;;;-1.30;99.90;;;;;;5007321;28;20477;-81
2022/04/03 05:43:58;;;;;;;7.97;4.90;;;-1.40;99.90;;;;;;5010284;28;20561;-83
2022/04/03 05:46:24;;;;;;;6.60;4.57;;;-1.40;99.90;;;;;;5012198;28;20050;-82
2022/04/03 05:48:49;;;;;;;6.03;4.97;;;-1.40;99.90;;;;;;5010654;28;20030;-84
2022/04/03 05:51:15;;;;;;;9.75;5.43;;;-1.30;99.90;;;;;;5008123;28;20057;-81
2022/04/03 05:53:42;;;;;;;11.35;5.13;;;-1.20;99.90;;;;;;5005384;28;20026;-83
2022/04/03 05:56:08;;;;;;;8.07;4.95;;;-1.20;99.90;;;;;;4992403;28;20046;-83
2022/04/03 05:58:35;;;;;;;7.82;4.90;;;-1.00;99.90;;;;;;4994673;28;20502;-81
2022/04/03 06:01:01;;;;;;;8.20;5.13;;;-0.90;99.90;;;;;;4994678;28;20045;-83
2022/04/03 06:03:26;;;;;;;8.13;5.63;;;-0.80;99.90;;;;;;4994759;28;20030;-83
2022/04/03 06:05:53;;;;;;;9.50;4.95;;;-0.50;99.90;;;;;;4995082;28;20275;-83
2022/04/03 06:08:18;;;;;;;7.03;5.13;;;-0.30;99.90;;;;;;4995966;28;20049;-83
2022/04/03 06:10:44;;;;;;;8.02;4.80;;;-0.10;99.90;;;;;;4995945;28;20053;-83
2022/04/03 06:13:14;;;;;;;7.72;5.00;;;0.20;99.90;;;;;;4998745;28;20069;-81
2022/04/03 06:15:42;;;;;;;11.25;4.85;;;0.40;99.90;;;;;;4995050;28;20018;-83
2022/04/03 06:18:09;;;;;;;6.43;4.28;;;0.70;99.90;;;;;;4996126;28;20089;-83
2022/04/03 06:20:35;;;;;;;8.63;3.88;;;1.10;99.90;;;;;;4995263;28;20081;-81
2022/04/03 06:23:03;;;;;;;6.45;3.78;;;1.40;99.90;;;;;;4995020;28;20053;-82
2022/04/03 06:25:29;;;;;;;9.20;4.03;;;1.70;99.90;;;;;;4995250;28;20050;-83
2022/04/03 06:27:55;;;;;;;7.43;3.60;;;2.00;99.90;;;;;;5005567;28;20026;-84
2022/04/03 06:30:22;;;;;;;4.85;3.28;;;2.40;99.90;;;;;;5029994;28;20049;-83
2022/04/03 06:32:49;;;;;;;6.75;3.50;;;2.80;99.90;;;;;;5022113;28;20029;-81
2022/04/03 06:35:14;;;;;;;4.68;2.88;;;3.20;99.90;;;;;;4999734;28;20037;-83
2022/04/03 06:37:40;;;;;;;6.25;3.60;;;3.60;99.90;;;;;;4994047;28;20022;-83
2022/04/03 06:40:07;;;;;;;3.88;3.03;;;4.00;99.90;;;;;;4994764;28;20164;-83
2022/04/03 06:42:33;;;;;;;6.78;3.85;;;4.20;99.90;;;;;;4995129;28;20058;-83
2022/04/03 06:45:00;;;;;;;6.07;3.42;;;4.50;99.90;;;;;;4996906;28;20076;-84
2022/04/03 06:47:26;;;;;;;6.38;3.60;;;4.90;99.90;;;;;;5007462;28;20022;-83
2022/04/03 06:49:52;;;;;;;5.25;3.13;;;5.10;99.90;;;;;;5000060;28;20525;-81
2022/04/03 06:52:18;;;;;;;6.60;3.47;;;5.40;99.90;;;;;;4995705;28;20431;-83
2022/04/03 06:54:44;;;;;;;8.00;3.08;;;5.60;99.90;;;;;;4997412;28;20513;-84
2022/04/03 06:57:13;;;;;;;6.93;3.35;;;5.80;99.90;;;;;;4997172;28;20026;-84
2022/04/03 06:59:39;;;;;;;5.97;2.92;;;5.90;99.90;;;;;;4996695;28;20493;-82
2022/04/03 07:02:05;;;;;;;5.40;3.53;;;6.00;99.90;;;;;;5007993;28;20030;-83
2022/04/03 07:04:31;;;;;;;5.57;3.33;;;6.00;99.90;;;;;;5020853;28;20034;-85
2022/04/03 07:06:57;;;;;;;9.23;3.65;;;6.10;99.90;;;;;;5033640;28;20042;-81
2022/04/03 07:09:23;;;;;;;6.22;3.30;;;6.30;99.90;;;;;;5016802;28;20030;-83
2022/04/03 07:11:49;;;;;;;6.13;2.78;;;6.40;99.90;;;;;;5002345;28;20089;-83
2022/04/03 07:14:15;;;;;;;4.75;2.53;;;6.50;99.90;;;;;;4996122;28;20053;-83
2022/04/03 07:16:40;;;;;;;6.60;3.10;;;6.60;99.90;;;;;;4995145;28;20027;-83
2022/04/03 07:19:06;;;;;;;6.28;2.67;;;6.80;99.80;;;;;;4995825;28;20092;-82
2022/04/03 07:21:32;;;;;;;5.38;2.50;;;6.90;98.50;;;;;;5002679;28;20082;-81
2022/04/03 07:23:58;;;;;;;3.30;1.98;;;7.00;94.00;;;;;;5020872;28;20022;-82
2022/04/03 07:26:23;;;;;;;5.43;2.00;;;6.90;88.70;;;;;;4998757;28;20031;-82
2022/04/03 07:28:49;;;;;;;4.45;1.65;;;6.70;88.90;;;;;;4996721;28;20022;-84
2022/04/03 07:32:12;;;;;;;5.32;1.92;;;6.60;90.30;;;;;;4999246;28;20038;-84
2022/04/03 07:38:12;;;;;;;4.00;2.10;;;7.00;89.20;;;;;;4957650;28;20110;-84
2022/04/03 07:44:46;;;;;;;2.92;1.83;;;7.30;82.00;;;;;;4958393;28;20355;-84
2022/04/03 07:51:34;;;;;;;5.00;2.58;;;7.90;81.00;;;;;;4903492;29;20036;-84
2022/04/03 07:55:24;;;;;;;5.13;2.20;;;7.90;78.00;;;;;;4923907;29;20040;-82
2022/04/03 07:58:21;;;;;;;;;;;;;;;;;;;;;
2022/04/03 08:01:23;;;;;;;3.95;2.53;;;7.80;78.40;;;;;;4932610;28;20484;-85
2022/04/03 08:11:42;;;;;;;;;;;;;;;;;;;;;
2022/04/03 08:31:03;;;;;;;4.63;2.05;;;8.00;71.50;;;;;;4930580;28;20035;-85
2022/04/03 08:33:57;;;;;;;3.58;2.00;;;7.90;70.30;;;;;;4957453;28;20413;-86
2022/04/03 08:37:18;;;;;;;3.85;1.83;;;8.60;70.50;;;;;;4968166;29;20027;-83
2022/04/03 08:39:50;;;;;;;5.07;1.95;;;9.00;68.90;;;;;;4921603;29;20024;-85
2022/04/03 08:42:40;;;;;;;3.00;1.85;;;8.70;67.80;;;;;;4950654;29;20043;-85
2022/04/03 08:45:11;;;;;;;3.08;2.03;;;8.30;66.10;;;;;;5000078;28;20035;-85
2022/04/03 08:47:51;;;;;;;3.22;2.00;;;8.30;63.80;;;;;;4999240;28;20367;-84
2022/04/03 08:50:23;;;;;;;3.75;1.80;;;8.70;63.40;;;;;;5000188;28;20042;-84
2022/04/03 08:55:41;;;;;;;4.05;2.05;;;9.50;63.40;;;;;;5006761;28;20026;-85
2022/04/03 08:58:07;;;;;;;3.10;2.00;;;10.20;62.80;;;;;;5020957;28;20069;-85
2022/04/03 09:00:37;;;;;;;2.72;2.03;;;10.30;60.80;;;;;;5024979;28;20021;-83
2022/04/03 09:03:02;;;;;;;2.25;1.38;;;9.60;59.30;;;;;;5025123;28;20085;-84
2022/04/03 09:05:37;;;;;;;4.22;1.65;;;9.10;59.10;;;;;;5026850;28;20037;-82
2022/04/03 09:08:03;;;;;;;5.88;2.00;;;8.50;61.10;;;;;;5018796;28;20029;-84
2022/04/03 09:10:30;;;;;;;3.22;1.67;;;8.40;63.40;;;;;;5004493;28;20118;-85
2022/04/03 09:12:56;;;;;;;1.80;1.30;;;8.20;62.70;;;;;;5003010;28;20031;-86
2022/04/03 09:15:24;;;;;;;5.35;1.70;;;8.30;63.80;;;;;;5002184;28;20030;-86
2022/04/03 09:17:55;;;;;;;5.25;1.70;;;8.60;65.30;;;;;;5001116;28;20086;-85
2022/04/03 09:20:50;;;;;;;3.80;1.80;;;8.40;61.00;;;;;;5004882;28;20072;-85
2022/04/03 09:23:17;;;;;;;4.45;1.92;;;8.20;62.40;;;;;;5007920;28;20044;-85
2022/04/03 09:25:44;;;;;;;2.55;1.40;;;7.80;65.00;;;;;;5017889;28;20030;-86
2022/04/03 09:28:17;;;;;;;4.88;1.83;;;7.60;66.30;;;;;;5012355;28;20060;-84
2022/04/03 09:30:45;;;;;;;3.75;1.65;;;7.50;67.20;;;;;;5016347;28;20026;-85
2022/04/03 09:33:13;;;;;;;7.00;1.73;;;6.90;67.10;;;;;;5017331;28;20426;-82
2022/04/03 09:36:01;;;;;;;2.38;1.73;;;6.60;69.80;;;;;;5013677;28;20381;-83
2022/04/03 09:38:29;;;;;;;4.00;1.50;;;6.40;70.60;;;;;;5016274;28;20029;-81
2022/04/03 09:40:55;;;;;;;3.38;1.92;;;6.40;71.40;;;;;;5012373;28;20121;-84
2022/04/03 09:43:32;;;;;;;4.88;2.20;;;6.30;71.90;;;;;;5007400;28;20033;-84
2022/04/03 09:46:01;;;;;;;2.45;1.85;;;6.00;72.30;;;;;;5017508;28;20120;-82
2022/04/03 09:48:41;;;;;;;3.53;2.15;;;5.90;73.90;;;;;;5017073;28;20061;-84
2022/04/03 09:51:09;;;;;;;4.72;2.42;;;5.90;73.60;;;;;;5024542;28;20509;-83
2022/04/03 09:54:00;;;;;;;9.18;2.00;;;6.10;73.60;;;;;;5019599;28;20058;-84
2022/04/03 09:56:31;;;;;;;2.42;1.80;;;6.50;74.80;;;;;;5011933;28;20019;-79
2022/04/03 09:59:06;;;;;;;4.70;1.95;;;6.50;73.20;;;;;;5010785;28;20053;-84
2022/04/03 10:01:34;;;;;;;2.80;2.28;;;6.40;73.80;;;;;;5007783;28;20397;-82
2022/04/03 10:04:02;;;;;;;4.45;1.80;;;6.30;74.00;;;;;;5004137;28;20042;-83
2022/04/03 10:06:28;;;;;;;3.40;1.70;;;6.10;75.70;;;;;;5005409;28;20486;-84
2022/04/03 10:08:54;;;;;;;3.83;1.73;;;6.10;76.70;;;;;;5007620;28;20458;-81
2022/04/03 10:11:23;;;;;;;4.03;1.63;;;6.00;75.30;;;;;;5013778;28;20054;-83
2022/04/03 10:13:50;;;;;;;3.67;1.75;;;5.90;76.60;;;;;;5010843;28;20037;-84
2022/04/03 10:16:18;;;;;;;4.40;2.05;;;5.90;77.20;;;;;;5013797;28;20089;-80
2022/04/03 10:18:46;;;;;;;5.82;1.90;;;5.90;77.50;;;;;;5009223;28;20422;-82
2022/04/03 10:21:16;;;;;;;3.03;1.98;;;5.90;78.60;;;;;;5006270;28;20030;-85
2022/04/03 10:23:43;;;;;;;4.57;2.03;;;6.00;79.40;;;;;;5007615;28;20113;-84
2022/04/03 10:26:11;;;;;;;5.15;1.73;;;5.90;78.00;;;;;;5002194;28;20030;-85
2022/04/03 10:28:40;;;;;;;3.03;2.03;;;6.10;79.00;;;;;;5008349;28;20053;-81
2022/04/03 10:31:07;;;;;;;2.33;1.75;;;6.40;78.50;;;;;;5015817;28;20030;-81
2022/04/03 10:33:38;;;;;;;2.05;1.42;;;6.60;78.20;;;;;;5002784;28;20046;-84
2022/04/03 10:36:09;;;;;;;2.90;1.33;;;6.90;77.20;;;;;;4999196;28;20026;-85
2022/04/03 10:38:37;;;;;;;2.40;1.60;;;7.00;75.40;;;;;;4999790;28;20077;-85
2022/04/03 10:41:05;;;;;;;2.40;1.55;;;7.10;73.10;;;;;;5000283;28;20085;-81
2022/04/03 10:43:38;;;;;;;1.80;1.17;;;6.90;73.80;;;;;;4997252;28;20018;-82
2022/04/03 10:46:04;;;;;;;3.67;1.40;;;6.60;74.30;;;;;;5026169;28;20406;-82
2022/04/03 10:48:31;;;;;;;1.73;1.27;;;6.60;74.20;;;;;;5037918;28;20029;-80
2022/04/03 10:51:08;;;;;;;1.85;1.23;;;6.90;76.90;;;;;;5027854;28;20064;-85
2022/04/03 10:53:43;;;;;;;3.45;0.95;;;7.70;76.70;;;;;;5014869;28;20433;-87
2022/04/03 10:56:30;;;;;;;3.28;1.35;;;8.60;72.00;;;;;;5015820;28;20029;-85
2022/04/03 10:58:57;;;;;;;2.35;1.00;;;9.20;72.30;;;;;;5014853;28;20072;-83
2022/04/03 11:01:28;;;;;;;2.53;1.10;;;9.60;69.20;;;;;;5014620;28;20033;-84
2022/04/03 11:04:13;;;;;;;1.33;0.65;;;9.70;69.10;;;;;;5015295;28;20034;-83
2022/04/03 11:06:48;;;;;;;2.60;1.00;;;9.90;71.50;;;;;;5016465;28;20076;-81
2022/04/03 11:09:22;;;;;;;4.47;1.13;;;9.50;68.50;;;;;;5016460;28;20033;-83
2022/04/03 11:11:57;;;;;;;2.75;1.30;;;9.40;69.90;;;;;;5014254;28;20276;-82
2022/04/03 11:14:52;;;;;;;1.23;1.00;;;9.50;69.20;;;;;;5015507;28;20387;-84
2022/04/03 11:17:19;;;;;;;5.70;1.38;;;9.50;69.10;;;;;;5015164;28;20034;-84
2022/04/03 11:19:46;;;;;;;2.78;1.48;;;9.90;68.50;;;;;;5017214;28;20018;-83
2022/04/03 11:22:36;;;;;;;1.80;1.17;;;9.80;69.00;;;;;;5015007;28;20025;-85
2022/04/03 11:25:02;;;;;;;3.70;1.25;;;9.50;68.10;;;;;;5016734;28;20488;-84
2022/04/03 11:27:28;;;;;;;1.95;0.80;;;9.60;70.20;;;;;;5014532;28;20030;-85
2022/04/03 11:29:54;;;;;;;5.45;1.30;;;10.10;68.50;;;;;;5014648;28;20022;-86
2022/04/03 11:32:20;;;;;;;1.77;1.33;;;10.20;68.70;;;;;;5014808;28;20026;-83
2022/04/03 11:35:00;;;;;;;2.90;1.33;;;10.40;69.10;;;;;;5015733;28;20504;-81
2022/04/03 11:37:26;;;;;;;2.88;1.33;;;10.80;70.30;;;;;;5015366;28;20030;-84
2022/04/03 11:39:53;;;;;;;4.28;1.10;;;11.30;67.00;;;;;;5016669;28;20045;-85
2022/04/03 11:42:22;;;;;;;3.40;1.10;;;11.70;69.40;;;;;;5017328;28;20030;-83
2022/04/03 11:44:53;;;;;;;1.88;1.08;;;12.00;63.70;;;;;;5014201;28;20045;-83
2022/04/03 11:47:24;;;;;;;2.22;1.20;;;11.00;64.40;;;;;;5014071;28;20036;-85
2022/04/03 11:50:08;;;;;;;5.45;1.33;;;10.70;65.90;;;;;;5014379;28;20032;-84
2022/04/03 11:52:35;;;;;;;4.85;1.30;;;10.30;66.20;;;;;;5015702;28;20033;-88
2022/04/03 11:55:09;;;;;;;3.40;1.00;;;10.20;67.10;;;;;;5014985;28;20072;-87
2022/04/03 11:57:35;;;;;;;1.70;1.20;;;10.20;68.10;;;;;;5015716;28;20022;-83
2022/04/03 12:00:11;;;;;;;2.97;1.25;;;10.30;69.00;;;;;;5015770;28;20018;-84
2022/04/03 12:02:37;;;;;;;5.20;1.27;;;10.30;65.70;;;;;;5015589;28;20076;-84
2022/04/03 12:05:03;;;;;;;3.33;1.20;;;10.30;67.90;;;;;;5015419;28;20095;-83
2022/04/03 12:07:29;;;;;;;2.78;1.13;;;10.60;66.10;;;;;;5014238;28;20142;-84
2022/04/03 12:09:54;;;;;;;3.38;1.30;;;10.70;65.30;;;;;;5013974;28;20076;-84
2022/04/03 12:12:24;;;;;;;5.55;1.52;;;10.80;66.40;;;;;;5013527;28;20026;-84
2022/04/03 12:14:50;;;;;;;2.30;1.20;;;10.90;65.00;;;;;;5014757;28;20366;-82
2022/04/03 12:17:21;;;;;;;1.48;1.00;;;10.90;66.10;;;;;;5014532;28;20045;-84
2022/04/03 12:19:48;;;;;;;2.28;1.23;;;10.80;68.10;;;;;;5015536;28;20049;-84
2022/04/03 12:22:20;;;;;;;2.42;1.27;;;11.10;66.50;;;;;;5017143;28;20079;-83
2022/04/03 12:24:49;;;;;;;1.40;0.80;;;11.40;63.50;;;;;;5019091;28;20022;-83
2022/04/03 12:27:14;;;;;;;3.78;0.90;;;11.20;62.60;;;;;;5014260;28;20033;-84
2022/04/03 12:29:49;;;;;;;1.20;1.10;;;11.10;65.70;;;;;;5013547;28;20026;-84
2022/04/03 12:32:39;;;;;;;3.03;1.63;;;11.30;66.40;;;;;;5016573;28;20026;-83
2022/04/03 12:35:05;;;;;;;3.25;1.63;;;11.30;64.10;;;;;;5014648;28;20033;-81
2022/04/03 12:37:40;;;;;;;1.52;1.27;;;11.40;65.70;;;;;;5012590;28;20055;-83
2022/04/03 12:40:11;;;;;;;2.00;1.00;;;11.50;62.40;;;;;;5022962;28;20010;-86
2022/04/03 12:42:38;;;;;;;1.48;1.05;;;11.50;62.20;;;;;;5018589;28;20034;-83
2022/04/03 12:45:22;;;;;;;3.95;1.08;;;11.40;62.40;;;;;;5021297;28;20089;-83
2022/04/03 12:47:58;;;;;;;2.17;1.27;;;11.50;64.60;;;;;;5018903;28;20076;-85
2022/04/03 12:50:30;;;;;;;1.58;1.42;;;11.10;63.30;;;;;;5025604;28;20430;-83
2022/04/03 12:52:57;;;;;;;3.15;1.75;;;10.90;66.80;;;;;;5018403;28;20057;-83
2022/04/03 12:55:22;;;;;;;3.25;1.20;;;10.40;64.90;;;;;;5020244;28;20544;-85
2022/04/03 13:00:46;;;;;;;3.42;1.52;;;9.50;68.50;;;;;;5031580;28;20041;-84
2022/04/03 13:03:33;;;;;;;3.47;1.52;;;9.00;70.40;;;;;;5018108;28;20025;-82
2022/04/03 13:06:03;;;;;;;1.85;1.60;;;8.60;72.20;;;;;;5016618;28;20113;-84
2022/04/03 13:08:51;;;;;;;5.22;1.80;;;8.20;73.00;;;;;;5015574;28;20022;-86
2022/04/03 13:11:28;;;;;;;4.35;1.50;;;8.00;75.00;;;;;;5018448;28;20049;-84
2022/04/03 13:13:53;;;;;;;8.23;4.45;;;7.60;75.40;;;;;;5016673;28;20030;-83
2022/04/03 13:16:19;;;;;;;12.20;5.22;;;7.30;77.40;;;;;;5016444;28;20158;-84
2022/04/03 13:18:45;;;;;;;3.65;1.98;;;7.10;78.90;;;;;;5017188;28;20030;-80
2022/04/03 13:21:19;;;;;;;8.45;4.32;;;7.00;80.30;;;;;;5016451;28;20034;-83
2022/04/03 13:23:45;;;;;;;11.75;7.47;;;6.80;80.30;;;;;;5016639;28;20033;-84
2022/04/03 13:26:10;;;;;;;16.08;6.45;;;6.70;82.20;;;;;;5019764;28;20030;-83
2022/04/03 13:28:36;;;;;;;5.72;2.83;;;6.70;82.40;;;;;;5019751;28;20065;-84
2022/04/03 13:31:02;;;;;;;5.03;1.77;;;6.70;83.70;;;;;;5019605;28;20026;-83
2022/04/03 13:33:27;;;;;;;6.20;2.55;;;6.60;85.30;;;;;;5020058;28;20029;-85
2022/04/03 13:35:53;;;;;;;5.22;1.52;;;6.60;86.50;;;;;;5017431;28;20386;-84
2022/04/03 13:38:18;;;;;;;2.15;1.60;;;6.60;88.00;;;;;;5019096;28;20117;-84
2022/04/03 13:40:45;;;;;;;1.33;1.15;;;6.80;90.20;;;;;;5020254;28;20033;-84
2022/04/03 13:43:13;;;;;;;3.83;1.55;;;7.00;90.70;;;;;;5031883;28;20044;-82
2022/04/03 13:45:59;;;;;;;3.22;1.40;;;7.30;90.10;;;;;;5015145;28;20065;-84